Time;durP1;ratioP1;P1;durP2;ratioP2;P2;SDS_P1;SDS_P2;PMS_P1;PMS_P2;Temp;Humidity;BMP_temperature;BMP_pressure;BME280_temperature;BME280_humidity;BME280_pressure;Samples;Min_cycle;Max_cycle;Signal;HPM_P1;HPM_P2
2022/11/18 00:00:57;;;;;;;0.30;0.30;;;7.30;99.90;;;;;;5135714;27;20445;-77
2022/11/18 00:03:25;;;;;;;0.30;0.30;;;7.30;99.90;;;;;;5134715;27;20474;-77
2022/11/18 00:05:55;;;;;;;0.37;0.27;;;7.30;99.90;;;;;;5135602;27;20443;-77
2022/11/18 00:08:23;;;;;;;0.30;0.20;;;7.40;99.90;;;;;;5135553;27;20445;-77
2022/11/18 00:10:49;;;;;;;0.40;0.30;;;7.40;99.90;;;;;;5135140;27;20805;-77
2022/11/18 00:16:01;;;;;;;0.30;0.20;;;7.50;99.90;;;;;;5135531;27;20394;-77
2022/11/18 00:18:29;;;;;;;0.30;0.20;;;7.40;99.90;;;;;;5135126;27;20481;-77
2022/11/18 00:21:01;;;;;;;0.30;0.30;;;7.40;99.90;;;;;;5135389;27;20427;-77
2022/11/18 00:23:28;;;;;;;0.30;0.30;;;7.40;99.90;;;;;;5135285;27;20470;-77
2022/11/18 00:25:55;;;;;;;0.33;0.30;;;7.30;99.90;;;;;;5135213;27;20444;-77
2022/11/18 00:28:21;;;;;;;0.30;0.23;;;7.30;99.90;;;;;;5134891;27;20447;-77
2022/11/18 00:30:48;;;;;;;0.30;0.30;;;7.30;99.90;;;;;;5135067;27;20452;-76
2022/11/18 00:33:15;;;;;;;0.30;0.20;;;7.30;99.90;;;;;;5135657;27;20458;-77
2022/11/18 00:35:43;;;;;;;0.30;0.20;;;7.30;99.90;;;;;;5135077;27;20445;-77
2022/11/18 00:38:10;;;;;;;0.50;0.30;;;7.30;99.90;;;;;;5135012;27;20439;-77
2022/11/18 00:40:36;;;;;;;0.30;0.30;;;7.30;99.90;;;;;;5134981;27;20455;-77
2022/11/18 00:43:02;;;;;;;0.30;0.20;;;7.30;99.90;;;;;;5134863;27;20459;-77
2022/11/18 00:45:29;;;;;;;0.30;0.30;;;7.30;99.90;;;;;;5134940;27;20782;-77
2022/11/18 00:47:56;;;;;;;0.30;0.27;;;7.30;99.90;;;;;;5134910;27;20209;-77
2022/11/18 00:50:23;;;;;;;0.30;0.20;;;7.30;99.90;;;;;;5134888;27;20438;-77
2022/11/18 00:52:51;;;;;;;0.30;0.20;;;7.30;99.90;;;;;;5134642;27;20486;-77
2022/11/18 00:55:18;;;;;;;0.30;0.20;;;7.30;99.90;;;;;;5134739;27;20442;-77
2022/11/18 00:57:45;;;;;;;0.30;0.30;;;7.30;99.90;;;;;;5134743;27;20447;-77
2022/11/18 01:00:12;;;;;;;0.30;0.30;;;7.30;99.90;;;;;;5134708;27;20445;-77
2022/11/18 01:02:39;;;;;;;0.40;0.30;;;7.30;99.90;;;;;;5134261;27;20938;-77
2022/11/18 01:05:06;;;;;;;0.30;0.30;;;7.30;99.90;;;;;;5134303;27;20465;-77
2022/11/18 01:07:33;;;;;;;0.30;0.20;;;7.30;99.90;;;;;;5134607;27;20446;-77
2022/11/18 01:10:01;;;;;;;0.63;0.63;;;7.30;99.90;;;;;;5134257;27;20447;-77
2022/11/18 01:15:12;;;;;;;0.30;0.20;;;7.30;99.90;;;;;;5134430;27;20774;-77
2022/11/18 01:17:38;;;;;;;0.30;0.20;;;7.30;99.90;;;;;;5134385;27;20438;-77
2022/11/18 01:20:06;;;;;;;0.30;0.20;;;7.40;99.90;;;;;;5134040;27;20479;-77
2022/11/18 01:22:33;;;;;;;0.30;0.20;;;7.40;99.90;;;;;;5134013;27;20809;-77
2022/11/18 01:25:01;;;;;;;0.30;0.20;;;7.40;99.90;;;;;;5134074;27;20945;-77
2022/11/18 01:27:28;;;;;;;0.30;0.20;;;7.40;99.90;;;;;;5134378;27;20813;-77
2022/11/18 01:29:55;;;;;;;0.30;0.20;;;7.40;99.90;;;;;;5134049;27;20817;-77
2022/11/18 01:32:21;;;;;;;0.30;0.30;;;7.50;99.90;;;;;;5133968;27;20993;-77
2022/11/18 01:34:48;;;;;;;0.30;0.30;;;7.50;99.90;;;;;;5133896;27;20466;-77
2022/11/18 01:37:15;;;;;;;0.30;0.20;;;7.50;99.90;;;;;;5134271;27;20443;-77
2022/11/18 01:39:42;;;;;;;0.30;0.20;;;7.50;99.90;;;;;;5134257;27;20447;-77
2022/11/18 01:42:14;;;;;;;0.30;0.20;;;7.50;99.90;;;;;;5134250;27;20442;-77
2022/11/18 01:45:08;;;;;;;0.30;0.20;;;7.50;99.90;;;;;;5133838;27;20985;-76
2022/11/18 01:47:40;;;;;;;0.30;0.30;;;7.40;99.90;;;;;;5119920;27;20454;-77
2022/11/18 01:50:07;;;;;;;0.30;0.20;;;7.40;99.90;;;;;;5134209;27;20447;-77
2022/11/18 01:52:35;;;;;;;0.30;0.20;;;7.40;99.90;;;;;;5133748;27;20486;-77
2022/11/18 01:55:09;;;;;;;0.30;0.20;;;7.40;99.90;;;;;;5134133;27;20451;-77
2022/11/18 01:57:38;;;;;;;0.30;0.30;;;7.40;99.90;;;;;;5134153;27;20432;-77
2022/11/18 02:00:07;;;;;;;0.30;0.20;;;7.40;99.90;;;;;;5134076;27;20451;-77
2022/11/18 02:02:37;;;;;;;0.30;0.30;;;7.50;99.90;;;;;;5132846;28;20439;-77
2022/11/18 02:05:05;;;;;;;14.20;0.73;;;7.50;99.90;;;;;;5134013;27;20443;-77
2022/11/18 02:07:34;;;;;;;0.30;0.20;;;7.40;99.90;;;;;;5134002;27;20439;-77
2022/11/18 02:10:04;;;;;;;0.30;0.30;;;7.40;99.90;;;;;;5133964;27;20443;-77
2022/11/18 02:12:31;;;;;;;0.30;0.20;;;7.40;99.90;;;;;;5133510;27;20852;-76
2022/11/18 02:15:00;;;;;;;0.80;0.30;;;7.40;99.90;;;;;;5133545;27;21004;-77
2022/11/18 02:17:39;;;;;;;0.30;0.20;;;7.50;99.90;;;;;;5133587;27;20974;-77
2022/11/18 02:20:28;;;;;;;0.30;0.20;;;7.50;99.90;;;;;;5133491;27;20480;-77
2022/11/18 02:23:28;;;;;;;0.30;0.20;;;7.50;99.90;;;;;;5133864;27;20488;-77
2022/11/18 02:26:26;;;;;;;0.30;0.20;;;7.50;99.90;;;;;;5129264;27;20449;-77
2022/11/18 02:29:02;;;;;;;0.30;0.20;;;7.50;99.90;;;;;;5137553;27;20461;-77
2022/11/18 02:31:34;;;;;;;0.30;0.20;;;7.50;99.90;;;;;;5137467;27;20422;-77
2022/11/18 02:34:07;;;;;;;0.30;0.20;;;7.50;99.90;;;;;;5137408;27;20466;-77
2022/11/18 02:36:41;;;;;;;0.30;0.20;;;7.50;99.90;;;;;;5137173;27;20898;-77
2022/11/18 02:39:13;;;;;;;0.30;0.30;;;7.50;99.90;;;;;;5137120;27;20818;-77
2022/11/18 02:41:42;;;;;;;0.30;0.20;;;7.50;99.90;;;;;;5137379;27;20835;-77
2022/11/18 02:44:14;;;;;;;0.30;0.20;;;7.50;99.90;;;;;;5137166;27;20473;-77
2022/11/18 02:46:45;;;;;;;0.30;0.30;;;7.50;99.90;;;;;;5137259;27;20792;-77
2022/11/18 02:49:16;;;;;;;0.30;0.30;;;7.50;99.90;;;;;;5137191;27;20427;-77
2022/11/18 02:51:45;;;;;;;0.30;0.20;;;7.50;99.90;;;;;;5136755;27;20996;-77
2022/11/18 02:54:14;;;;;;;0.30;0.20;;;7.50;99.90;;;;;;5137038;27;20466;-77
2022/11/18 02:56:42;;;;;;;3.90;0.40;;;7.50;99.90;;;;;;5137026;27;20470;-77
2022/11/18 02:59:08;;;;;;;0.30;0.30;;;7.50;99.90;;;;;;5136971;27;20443;-77
2022/11/18 03:01:37;;;;;;;0.30;0.20;;;7.60;99.90;;;;;;5137010;27;20445;-77
2022/11/18 03:04:04;;;;;;;0.30;0.20;;;7.60;99.90;;;;;;5136502;27;21003;-77
2022/11/18 03:06:36;;;;;;;0.30;0.20;;;7.60;99.90;;;;;;5136849;27;20443;-77
2022/11/18 03:09:09;;;;;;;0.30;0.20;;;7.60;99.90;;;;;;5137689;27;20431;-77
2022/11/18 03:11:44;;;;;;;0.30;0.20;;;7.60;99.90;;;;;;5136686;27;20427;-77
2022/11/18 03:14:21;;;;;;;0.30;0.20;;;7.60;99.90;;;;;;5136662;27;20462;-77
2022/11/18 03:16:58;;;;;;;0.30;0.20;;;7.50;99.90;;;;;;5136693;27;20766;-77
2022/11/18 03:19:35;;;;;;;0.30;0.20;;;7.50;99.90;;;;;;5136245;27;20486;-77
2022/11/18 03:22:10;;;;;;;0.30;0.20;;;7.50;99.90;;;;;;5136581;27;20423;-77
2022/11/18 03:24:42;;;;;;;0.30;0.27;;;7.50;99.90;;;;;;5136140;27;20989;-77
2022/11/18 03:27:12;;;;;;;0.30;0.30;;;7.50;99.90;;;;;;5136183;27;20441;-77
2022/11/18 03:29:44;;;;;;;0.30;0.20;;;7.50;99.90;;;;;;5136534;27;20431;-77
2022/11/18 03:32:16;;;;;;;0.30;0.20;;;7.50;99.90;;;;;;5136301;27;20467;-77
2022/11/18 03:34:47;;;;;;;0.30;0.20;;;7.50;99.90;;;;;;5136193;27;20470;-77
2022/11/18 03:37:16;;;;;;;0.30;0.27;;;7.50;99.90;;;;;;5135940;27;20914;-77
2022/11/18 03:39:48;;;;;;;0.30;0.30;;;7.50;99.90;;;;;;5135888;27;20447;-77
2022/11/18 03:42:19;;;;;;;0.30;0.20;;;7.50;99.90;;;;;;5136191;27;20773;-77
2022/11/18 03:44:50;;;;;;;0.30;0.30;;;7.50;99.90;;;;;;5136078;27;20462;-77
2022/11/18 03:47:24;;;;;;;0.30;0.30;;;7.50;99.90;;;;;;5136096;27;20430;-77
2022/11/18 03:49:55;;;;;;;0.33;0.27;;;7.50;99.90;;;;;;5135713;27;20794;-77
2022/11/18 03:52:25;;;;;;;0.40;0.40;;;7.50;99.90;;;;;;5135902;27;20536;-77
2022/11/18 03:54:54;;;;;;;0.30;0.27;;;7.60;99.90;;;;;;5135805;27;20466;-77
2022/11/18 03:57:25;;;;;;;0.40;0.40;;;7.50;99.90;;;;;;5135817;27;20443;-77
2022/11/18 03:59:59;;;;;;;0.30;0.20;;;7.60;99.90;;;;;;5135852;27;20427;-77
2022/11/18 04:02:29;;;;;;;0.30;0.30;;;7.60;99.90;;;;;;5135781;27;20427;-77
2022/11/18 04:04:57;;;;;;;0.50;0.30;;;7.60;99.90;;;;;;5135747;27;20470;-77
2022/11/18 04:07:35;;;;;;;0.30;0.20;;;7.60;99.90;;;;;;5135286;27;20807;-77
2022/11/18 04:10:06;;;;;;;0.30;0.20;;;7.60;99.90;;;;;;5135632;27;20427;-77
2022/11/18 04:12:37;;;;;;;0.30;0.20;;;7.60;99.90;;;;;;5135485;27;20466;-77
2022/11/18 04:15:05;;;;;;;0.30;0.20;;;7.60;99.90;;;;;;5135527;27;20423;-77
2022/11/18 04:17:33;;;;;;;0.30;0.20;;;7.50;99.90;;;;;;5135365;27;20516;-77
2022/11/18 04:20:00;;;;;;;0.30;0.30;;;7.50;99.90;;;;;;5134956;27;20496;-77
2022/11/18 04:22:27;;;;;;;0.30;0.20;;;7.50;99.90;;;;;;5135323;27;20441;-77
2022/11/18 04:24:53;;;;;;;0.30;0.20;;;7.50;99.90;;;;;;5135209;27;20463;-77
2022/11/18 04:27:20;;;;;;;0.30;0.30;;;7.40;99.90;;;;;;5135262;27;20813;-77
2022/11/18 04:29:47;;;;;;;0.30;0.20;;;7.40;99.90;;;;;;5134900;27;20946;-77
2022/11/18 04:32:14;;;;;;;0.30;0.20;;;7.40;99.90;;;;;;5134787;27;20478;-77
2022/11/18 04:34:42;;;;;;;0.40;0.40;;;7.40;99.90;;;;;;5134980;27;20463;-77
2022/11/18 04:37:08;;;;;;;0.30;0.20;;;7.30;99.90;;;;;;5134788;27;20949;-77
2022/11/18 04:39:35;;;;;;;0.30;0.20;;;7.20;99.90;;;;;;5135061;27;20439;-77
2022/11/18 04:42:02;;;;;;;0.30;0.20;;;7.20;99.90;;;;;;5135007;27;20447;-77
2022/11/18 04:44:30;;;;;;;0.30;0.20;;;7.20;99.90;;;;;;5134915;27;20466;-77
2022/11/18 04:46:59;;;;;;;0.30;0.20;;;7.30;99.90;;;;;;5134946;27;20449;-77
2022/11/18 04:49:26;;;;;;;0.33;0.27;;;7.20;99.90;;;;;;5134466;27;20812;-76
2022/11/18 04:51:56;;;;;;;0.30;0.20;;;7.20;99.90;;;;;;5134855;27;20442;-77
2022/11/18 04:54:23;;;;;;;0.30;0.20;;;7.20;99.90;;;;;;5134719;27;20459;-77
2022/11/18 04:56:50;;;;;;;0.30;0.30;;;7.20;99.90;;;;;;5134732;27;20442;-77
2022/11/18 04:59:19;;;;;;;0.30;0.30;;;7.20;99.90;;;;;;5134724;27;20447;-76
2022/11/18 05:01:46;;;;;;;0.30;0.30;;;7.20;99.90;;;;;;5134689;27;20434;-76
2022/11/18 05:04:15;;;;;;;0.30;0.20;;;7.10;99.90;;;;;;5134595;27;20828;-76
2022/11/18 05:06:42;;;;;;;0.30;0.20;;;7.10;99.90;;;;;;5134300;27;20443;-76
2022/11/18 05:09:10;;;;;;;0.30;0.20;;;7.10;99.90;;;;;;5134579;27;20445;-76
2022/11/18 05:14:21;;;;;;;0.30;0.30;;;7.10;99.90;;;;;;5134183;27;20539;-76
2022/11/18 05:16:48;;;;;;;0.30;0.20;;;7.10;99.90;;;;;;5134491;27;20778;-76
2022/11/18 05:19:15;;;;;;;0.30;0.20;;;7.00;99.90;;;;;;5134152;27;20848;-76
2022/11/18 05:21:42;;;;;;;0.30;0.30;;;7.00;99.90;;;;;;5134155;27;20450;-76
2022/11/18 05:24:10;;;;;;;0.30;0.30;;;7.00;99.90;;;;;;5134365;27;20463;-76
2022/11/18 05:26:37;;;;;;;0.30;0.20;;;6.90;99.90;;;;;;5134397;27;20449;-77
2022/11/18 05:29:04;;;;;;;0.30;0.20;;;6.90;99.90;;;;;;5134069;27;20934;-77
2022/11/18 05:31:30;;;;;;;0.30;0.20;;;6.80;99.90;;;;;;5134369;27;20446;-77
2022/11/18 05:33:58;;;;;;;0.30;0.30;;;6.90;99.90;;;;;;5134170;27;20478;-77
2022/11/18 05:36:24;;;;;;;0.30;0.20;;;6.90;99.90;;;;;;5134273;27;20443;-77
2022/11/18 05:38:51;;;;;;;0.30;0.20;;;6.90;99.90;;;;;;5134257;27;20818;-77
2022/11/18 05:44:05;;;;;;;0.30;0.20;;;6.90;99.90;;;;;;5134067;28;20439;-77
2022/11/18 05:46:32;;;;;;;0.30;0.20;;;6.90;99.90;;;;;;5134212;27;20454;-77
2022/11/18 05:48:59;;;;;;;0.40;0.30;;;6.90;99.90;;;;;;5134154;27;20442;-76
2022/11/18 05:51:25;;;;;;;0.30;0.30;;;6.90;99.90;;;;;;5134161;27;20439;-77
2022/11/18 05:53:53;;;;;;;0.30;0.20;;;6.90;99.90;;;;;;5133979;27;20486;-77
2022/11/18 05:56:25;;;;;;;0.30;0.30;;;6.90;99.90;;;;;;5134151;27;20447;-76
2022/11/18 05:58:51;;;;;;;0.30;0.20;;;6.90;99.90;;;;;;5133787;27;20894;-76
2022/11/18 06:01:21;;;;;;;0.30;0.20;;;6.90;99.90;;;;;;5135061;27;20937;-76
2022/11/18 06:03:48;;;;;;;0.30;0.30;;;6.90;99.90;;;;;;5137985;27;20455;-77
2022/11/18 06:06:19;;;;;;;0.30;0.30;;;6.90;99.90;;;;;;5137630;27;20449;-76
2022/11/18 06:08:52;;;;;;;0.30;0.20;;;6.90;99.90;;;;;;5138021;27;20439;-76
2022/11/18 06:11:21;;;;;;;0.40;0.40;;;6.90;99.90;;;;;;5137646;27;20433;-77
2022/11/18 06:13:53;;;;;;;0.30;0.23;;;6.90;99.90;;;;;;5137743;27;20497;-77
2022/11/18 06:16:23;;;;;;;0.30;0.20;;;6.90;99.90;;;;;;5137882;27;20434;-77
2022/11/18 06:18:50;;;;;;;0.30;0.30;;;6.90;99.90;;;;;;5138150;27;20474;-77
2022/11/18 06:21:16;;;;;;;0.50;0.40;;;6.90;99.90;;;;;;5137752;27;20446;-77
2022/11/18 06:23:44;;;;;;;0.30;0.30;;;6.90;99.90;;;;;;5137611;27;20462;-77
2022/11/18 06:26:11;;;;;;;0.30;0.20;;;6.90;99.90;;;;;;5137651;27;20450;-77
2022/11/18 06:28:40;;;;;;;0.30;0.27;;;6.80;99.90;;;;;;5137648;27;20482;-77
2022/11/18 06:31:07;;;;;;;0.30;0.20;;;6.90;99.90;;;;;;5137543;27;20448;-77
2022/11/18 06:33:34;;;;;;;0.73;0.73;;;6.80;99.90;;;;;;5137334;27;20479;-76
2022/11/18 06:36:01;;;;;;;0.30;0.20;;;6.80;99.90;;;;;;5137447;27;20493;-77
2022/11/18 06:38:28;;;;;;;0.30;0.30;;;6.80;99.90;;;;;;5137110;27;20442;-77
2022/11/18 06:40:59;;;;;;;0.30;0.20;;;6.80;99.90;;;;;;5137398;27;20453;-77
2022/11/18 06:43:41;;;;;;;0.30;0.20;;;6.70;99.90;;;;;;5137240;27;20469;-77
2022/11/18 06:49:02;;;;;;;0.30;0.30;;;6.70;99.90;;;;;;5126002;27;20427;-77
2022/11/18 06:51:29;;;;;;;0.30;0.30;;;6.80;99.90;;;;;;5137209;27;20442;-77
2022/11/18 06:53:56;;;;;;;0.30;0.20;;;6.70;99.90;;;;;;5136973;27;20482;-76
2022/11/18 06:56:23;;;;;;;0.30;0.30;;;6.70;99.90;;;;;;5137028;27;20451;-77
2022/11/18 06:58:54;;;;;;;0.30;0.30;;;6.70;99.90;;;;;;5136961;27;20453;-77
2022/11/18 07:01:24;;;;;;;0.30;0.20;;;6.60;99.90;;;;;;5137003;27;20439;-77
2022/11/18 07:03:51;;;;;;;0.30;0.30;;;6.70;99.90;;;;;;5136908;27;20515;-77
2022/11/18 07:06:20;;;;;;;0.30;0.20;;;6.70;99.90;;;;;;5136596;27;20937;-77
2022/11/18 07:08:48;;;;;;;0.30;0.30;;;6.70;99.90;;;;;;5136840;27;20794;-77
2022/11/18 07:11:16;;;;;;;0.30;0.20;;;6.80;99.90;;;;;;5136463;27;20938;-77
2022/11/18 07:13:43;;;;;;;0.30;0.30;;;6.70;99.90;;;;;;5136282;27;20475;-77
2022/11/18 07:16:13;;;;;;;0.30;0.20;;;6.70;99.90;;;;;;5136543;27;20437;-77
2022/11/18 07:18:42;;;;;;;2.27;0.70;;;6.80;99.90;;;;;;5136165;27;20989;-77
2022/11/18 07:21:10;;;;;;;0.30;0.30;;;6.90;99.90;;;;;;5136584;27;20445;-77
2022/11/18 07:23:37;;;;;;;0.30;0.20;;;6.90;99.90;;;;;;5136462;27;20451;-77
2022/11/18 07:26:05;;;;;;;0.30;0.20;;;6.90;99.90;;;;;;5131584;27;20444;-77
2022/11/18 07:28:32;;;;;;;0.30;0.20;;;6.90;99.90;;;;;;5124366;27;20435;-77
2022/11/18 07:31:03;;;;;;;0.30;0.20;;;6.90;99.90;;;;;;5119981;27;20814;-79
2022/11/18 07:33:30;;;;;;;0.30;0.30;;;6.90;99.90;;;;;;5121261;27;20471;-79
2022/11/18 07:36:02;;;;;;;0.30;0.30;;;6.90;99.90;;;;;;5136284;27;20443;-79
2022/11/18 07:38:29;;;;;;;0.30;0.20;;;6.90;99.90;;;;;;5123629;27;20431;-79
2022/11/18 07:41:02;;;;;;;0.30;0.23;;;6.90;99.90;;;;;;5124708;27;20446;-79
2022/11/18 07:43:29;;;;;;;0.30;0.30;;;6.90;99.90;;;;;;5124274;27;20448;-79
2022/11/18 07:45:56;;;;;;;0.30;0.20;;;6.90;99.90;;;;;;5125817;27;20439;-79
2022/11/18 07:48:23;;;;;;;0.30;0.30;;;6.90;99.90;;;;;;5125477;27;20450;-79
2022/11/18 07:50:51;;;;;;;0.30;0.20;;;6.90;99.90;;;;;;5123793;27;20471;-79
2022/11/18 07:53:19;;;;;;;0.30;0.20;;;7.00;99.90;;;;;;5125010;27;20471;-79
2022/11/18 07:55:46;;;;;;;0.30;0.30;;;7.00;99.90;;;;;;5123717;27;20444;-79
2022/11/18 07:58:13;;;;;;;0.63;0.40;;;7.00;99.90;;;;;;5126154;27;20431;-79
2022/11/18 08:00:40;;;;;;;0.30;0.30;;;7.00;99.90;;;;;;5124438;27;20436;-79
2022/11/18 08:03:07;;;;;;;0.30;0.20;;;7.10;99.90;;;;;;5124761;27;20463;-79
2022/11/18 08:05:33;;;;;;;0.30;0.30;;;7.10;99.90;;;;;;5126056;27;20431;-79
2022/11/18 08:08:00;;;;;;;0.30;0.30;;;7.00;99.90;;;;;;5123979;27;20961;-79
2022/11/18 08:10:28;;;;;;;0.30;0.30;;;7.00;99.90;;;;;;5124279;27;20801;-79
2022/11/18 08:12:56;;;;;;;0.30;0.20;;;7.00;99.90;;;;;;5129003;27;20463;-79
2022/11/18 08:15:23;;;;;;;0.30;0.20;;;7.10;99.90;;;;;;5135481;27;20455;-79
2022/11/18 08:17:49;;;;;;;0.30;0.27;;;7.10;99.90;;;;;;5135128;27;20942;-79
2022/11/18 08:20:17;;;;;;;0.30;0.30;;;7.10;99.90;;;;;;5135112;27;20485;-79
2022/11/18 08:22:43;;;;;;;0.30;0.20;;;7.20;99.90;;;;;;5135184;27;20442;-79
2022/11/18 08:25:10;;;;;;;0.40;0.30;;;7.30;99.90;;;;;;5134586;27;20431;-79
2022/11/18 08:27:38;;;;;;;0.30;0.20;;;7.30;99.90;;;;;;5135453;27;20445;-79
2022/11/18 08:30:06;;;;;;;0.83;0.40;;;7.40;99.90;;;;;;5134840;27;20455;-79
2022/11/18 08:32:33;;;;;;;0.30;0.20;;;7.40;99.90;;;;;;5135161;27;20518;-79
2022/11/18 08:35:00;;;;;;;0.30;0.30;;;7.40;99.90;;;;;;5134752;27;20997;-79
2022/11/18 08:37:26;;;;;;;0.30;0.30;;;7.50;99.90;;;;;;5134768;27;20450;-79
2022/11/18 08:39:53;;;;;;;1.70;0.30;;;7.50;99.90;;;;;;5135035;27;20442;-79
2022/11/18 08:42:21;;;;;;;0.30;0.20;;;7.60;99.90;;;;;;5134888;27;20461;-79
2022/11/18 08:44:49;;;;;;;0.50;0.40;;;7.50;99.90;;;;;;5134552;27;20973;-79
2022/11/18 08:47:16;;;;;;;0.30;0.30;;;7.50;99.90;;;;;;5134894;27;20443;-79
2022/11/18 08:49:42;;;;;;;0.30;0.30;;;7.40;99.90;;;;;;5134804;27;20443;-79
2022/11/18 08:52:10;;;;;;;0.30;0.20;;;7.40;99.90;;;;;;5134913;27;20439;-78
2022/11/18 08:54:37;;;;;;;0.30;0.30;;;7.40;99.90;;;;;;5135482;27;20489;-79
2022/11/18 08:57:03;;;;;;;0.40;0.30;;;7.40;99.90;;;;;;5134719;27;20449;-79
2022/11/18 08:59:31;;;;;;;0.30;0.30;;;7.30;99.90;;;;;;5134751;27;20449;-79
2022/11/18 09:01:59;;;;;;;0.30;0.27;;;7.30;99.90;;;;;;5134405;27;20997;-79
2022/11/18 09:04:26;;;;;;;0.30;0.30;;;7.30;99.90;;;;;;5134576;27;20493;-79
2022/11/18 09:06:52;;;;;;;0.30;0.20;;;7.40;99.90;;;;;;5134623;27;20476;-79
2022/11/18 09:09:19;;;;;;;0.30;0.30;;;7.40;99.90;;;;;;5134608;27;20445;-79
2022/11/18 09:11:46;;;;;;;0.30;0.20;;;7.40;99.90;;;;;;5134572;27;20454;-79
2022/11/18 09:14:13;;;;;;;0.30;0.30;;;7.50;99.90;;;;;;5134382;27;20483;-79
2022/11/18 09:16:39;;;;;;;0.30;0.20;;;7.50;99.90;;;;;;5134513;27;20438;-79
2022/11/18 09:19:07;;;;;;;1.03;0.30;;;7.50;99.90;;;;;;5134116;27;20485;-79
2022/11/18 09:21:34;;;;;;;0.37;0.30;;;7.50;99.90;;;;;;5134164;27;20933;-79
2022/11/18 09:24:05;;;;;;;0.30;0.20;;;7.60;99.90;;;;;;5134303;27;20466;-79
2022/11/18 09:26:31;;;;;;;0.30;0.20;;;7.60;99.90;;;;;;5134520;27;20439;-79
2022/11/18 09:28:58;;;;;;;0.30;0.20;;;7.60;99.90;;;;;;5134430;27;20446;-79
2022/11/18 09:31:25;;;;;;;0.30;0.20;;;7.60;99.90;;;;;;5134409;27;20454;-79
2022/11/18 09:33:52;;;;;;;0.30;0.20;;;7.60;99.90;;;;;;5134265;27;20478;-79
2022/11/18 09:36:22;;;;;;;0.30;0.20;;;7.60;99.90;;;;;;5137510;27;20954;-79
2022/11/18 09:38:49;;;;;;;0.30;0.20;;;7.60;99.90;;;;;;5138298;27;20442;-79
2022/11/18 09:41:25;;;;;;;0.30;0.20;;;7.70;99.90;;;;;;5138517;27;20439;-79
2022/11/18 09:44:05;;;;;;;0.40;0.30;;;7.70;99.90;;;;;;5138556;27;20466;-77
2022/11/18 09:46:44;;;;;;;0.30;0.20;;;7.70;99.90;;;;;;5138449;27;20435;-77
2022/11/18 09:49:16;;;;;;;0.30;0.20;;;7.80;99.90;;;;;;5138174;27;20422;-77
2022/11/18 09:51:48;;;;;;;0.30;0.20;;;7.80;99.90;;;;;;5138387;27;20438;-77
2022/11/18 09:54:20;;;;;;;0.30;0.20;;;7.80;99.90;;;;;;5137898;27;20478;-76
2022/11/18 09:56:48;;;;;;;0.30;0.20;;;7.80;99.90;;;;;;5137949;27;20441;-77
2022/11/18 09:59:17;;;;;;;0.30;0.20;;;7.90;99.90;;;;;;5138185;27;20442;-76
2022/11/18 10:01:44;;;;;;;0.30;0.30;;;7.90;99.90;;;;;;5137801;27;20926;-77
2022/11/18 10:04:16;;;;;;;0.30;0.20;;;8.00;99.90;;;;;;5138067;27;20454;-76
2022/11/18 10:06:45;;;;;;;0.30;0.20;;;8.00;99.90;;;;;;5138105;27;20480;-77
2022/11/18 10:09:25;;;;;;;0.30;0.20;;;8.10;99.90;;;;;;5138049;27;20446;-77
2022/11/18 10:12:09;;;;;;;0.30;0.20;;;8.20;99.90;;;;;;5138304;27;20625;-79
2022/11/18 10:14:47;;;;;;;0.50;0.50;;;8.30;99.90;;;;;;5137817;27;20478;-79
2022/11/18 10:17:29;;;;;;;0.40;0.40;;;8.50;99.90;;;;;;5137898;27;20431;-79
2022/11/18 10:20:19;;;;;;;0.30;0.30;;;8.60;99.90;;;;;;5137619;27;20488;-79
2022/11/18 10:22:53;;;;;;;0.40;0.30;;;8.60;99.90;;;;;;5137720;27;20488;-79
2022/11/18 10:25:20;;;;;;;0.30;0.30;;;8.60;99.90;;;;;;5137987;27;20423;-79
2022/11/18 10:27:49;;;;;;;0.40;0.40;;;8.80;99.90;;;;;;5137635;27;20442;-79
2022/11/18 10:30:18;;;;;;;0.30;0.30;;;8.90;99.90;;;;;;5137575;27;20465;-79
2022/11/18 10:32:59;;;;;;;0.40;0.40;;;8.90;99.90;;;;;;5137479;27;20446;-79
2022/11/18 10:35:30;;;;;;;0.40;0.40;;;9.00;99.90;;;;;;5137450;27;20466;-79
2022/11/18 10:38:03;;;;;;;0.30;0.30;;;9.10;99.90;;;;;;5137213;27;20906;-79
2022/11/18 10:40:32;;;;;;;0.37;0.30;;;9.20;99.90;;;;;;5137320;27;20450;-79
2022/11/18 10:42:58;;;;;;;0.40;0.40;;;9.40;99.90;;;;;;5137229;27;20462;-79
2022/11/18 10:45:28;;;;;;;0.40;0.30;;;9.40;99.90;;;;;;5137337;27;20449;-79
2022/11/18 10:48:01;;;;;;;0.30;0.30;;;9.40;99.90;;;;;;5136493;27;20449;-79
2022/11/18 10:50:31;;;;;;;0.30;0.30;;;9.40;99.90;;;;;;5137260;27;20427;-79
2022/11/18 10:52:58;;;;;;;0.30;0.30;;;9.30;99.90;;;;;;5137150;27;20462;-79
2022/11/18 10:55:27;;;;;;;0.97;0.30;;;9.30;99.90;;;;;;5137085;27;20475;-79
2022/11/18 10:57:58;;;;;;;0.30;0.20;;;9.30;99.90;;;;;;5137035;27;20488;-79
2022/11/18 11:00:40;;;;;;;0.40;0.30;;;9.30;99.90;;;;;;5137336;27;20427;-79
2022/11/18 11:03:29;;;;;;;0.30;0.20;;;9.30;99.90;;;;;;5136615;27;20549;-79
2022/11/18 11:06:15;;;;;;;0.30;0.30;;;9.30;99.90;;;;;;5137184;27;20433;-79
2022/11/18 11:08:48;;;;;;;1.70;0.40;;;9.30;99.90;;;;;;5137717;27;20427;-79
2022/11/18 11:11:27;;;;;;;0.30;0.20;;;9.30;99.90;;;;;;5136848;27;20435;-79
2022/11/18 11:13:58;;;;;;;0.30;0.20;;;9.30;99.90;;;;;;5136657;27;20489;-79
2022/11/18 11:16:27;;;;;;;0.30;0.27;;;9.30;99.90;;;;;;5136732;27;20446;-79
2022/11/18 11:18:59;;;;;;;0.30;0.30;;;9.40;99.90;;;;;;5136461;27;20479;-79
2022/11/18 11:21:27;;;;;;;0.30;0.20;;;9.60;99.90;;;;;;5136643;27;20423;-79
2022/11/18 11:23:54;;;;;;;0.30;0.27;;;9.90;99.90;;;;;;5136198;27;20519;-79
2022/11/18 11:26:29;;;;;;;0.40;0.30;;;10.10;99.90;;;;;;5136200;27;20950;-79
2022/11/18 11:29:01;;;;;;;0.30;0.30;;;10.20;99.90;;;;;;5136168;27;20862;-79
2022/11/18 11:31:36;;;;;;;0.30;0.30;;;10.20;99.90;;;;;;5136498;27;20428;-79
2022/11/18 11:34:11;;;;;;;0.30;0.30;;;10.20;99.90;;;;;;5136232;27;20454;-79
2022/11/18 11:36:49;;;;;;;0.97;0.30;;;10.00;99.90;;;;;;5136409;27;20437;-79
2022/11/18 11:39:39;;;;;;;0.30;0.30;;;9.90;99.90;;;;;;5136311;27;20429;-79
2022/11/18 11:42:20;;;;;;;0.40;0.30;;;9.80;99.90;;;;;;5136389;27;20942;-79
2022/11/18 11:44:59;;;;;;;0.30;0.30;;;9.80;99.90;;;;;;5136143;27;20477;-79
2022/11/18 11:47:48;;;;;;;0.30;0.30;;;9.80;99.90;;;;;;5135836;27;20423;-79
2022/11/18 11:50:23;;;;;;;0.40;0.30;;;9.90;99.90;;;;;;5136114;27;20431;-79
2022/11/18 11:53:08;;;;;;;1.33;0.50;;;9.90;99.90;;;;;;5135951;27;20483;-79
2022/11/18 11:55:53;;;;;;;0.30;0.30;;;10.20;99.90;;;;;;5135883;27;20828;-79
2022/11/18 11:58:38;;;;;;;0.30;0.20;;;10.40;99.90;;;;;;5135056;27;20431;-79
2022/11/18 12:01:11;;;;;;;0.30;0.30;;;10.50;99.90;;;;;;5135862;27;20441;-79
2022/11/18 12:03:45;;;;;;;0.30;0.30;;;10.60;99.90;;;;;;5135413;27;20981;-80
2022/11/18 12:06:12;;;;;;;0.50;0.30;;;10.40;99.90;;;;;;5135806;27;20448;-80
2022/11/18 12:08:55;;;;;;;0.40;0.40;;;10.40;99.90;;;;;;5135682;27;20472;-79
2022/11/18 12:11:29;;;;;;;0.30;0.30;;;10.40;99.90;;;;;;5135432;27;20838;-80
2022/11/18 12:14:02;;;;;;;0.40;0.30;;;10.30;99.90;;;;;;5135840;27;20459;-79
2022/11/18 12:16:36;;;;;;;0.40;0.30;;;10.40;99.90;;;;;;5136082;27;20439;-79
2022/11/18 12:19:11;;;;;;;0.30;0.30;;;10.40;99.90;;;;;;5135383;27;20519;-80
2022/11/18 12:22:02;;;;;;;0.30;0.20;;;10.50;99.90;;;;;;5135447;27;20431;-80
2022/11/18 12:24:33;;;;;;;0.90;0.40;;;10.50;99.90;;;;;;5135052;27;20546;-79
2022/11/18 12:27:01;;;;;;;0.37;0.27;;;10.40;99.90;;;;;;5135376;27;20786;-80
2022/11/18 12:29:38;;;;;;;0.30;0.30;;;10.30;99.90;;;;;;5135278;27;20571;-80
2022/11/18 12:32:25;;;;;;;0.40;0.40;;;10.20;99.90;;;;;;5135478;27;20435;-80
2022/11/18 12:34:58;;;;;;;0.30;0.30;;;10.20;99.90;;;;;;5135252;27;20486;-80
2022/11/18 12:37:45;;;;;;;0.50;0.30;;;10.10;99.90;;;;;;5134857;27;20917;-80
2022/11/18 12:40:33;;;;;;;0.30;0.30;;;10.00;99.90;;;;;;5135115;27;20427;-80
2022/11/18 12:45:53;;;;;;;0.30;0.27;;;10.00;99.90;;;;;;5135283;27;20411;-80
2022/11/18 12:48:35;;;;;;;1.27;0.60;;;10.10;99.90;;;;;;5134647;27;20429;-80
2022/11/18 12:51:23;;;;;;;0.30;0.20;;;10.10;99.90;;;;;;5134635;27;20427;-80
2022/11/18 12:53:52;;;;;;;0.30;0.30;;;10.30;99.90;;;;;;5134333;27;21026;-80
2022/11/18 12:56:23;;;;;;;0.50;0.30;;;10.30;99.90;;;;;;5135045;27;20845;-80
2022/11/18 12:58:52;;;;;;;0.30;0.30;;;10.20;99.90;;;;;;5134836;27;20518;-79
2022/11/18 13:01:22;;;;;;;0.77;0.40;;;10.20;99.90;;;;;;5134789;27;20450;-79
2022/11/18 13:03:48;;;;;;;0.97;0.70;;;10.10;99.90;;;;;;5134581;27;20467;-79
2022/11/18 13:06:24;;;;;;;0.30;0.30;;;10.00;99.90;;;;;;5134592;27;20560;-79
2022/11/18 13:08:54;;;;;;;0.40;0.30;;;10.00;99.90;;;;;;5134607;27;20490;-79
2022/11/18 13:19:54;;;;;;;0.40;0.30;;;10.00;99.90;;;;;;5134102;27;20546;-80
2022/11/18 13:25:22;;;;;;;0.50;0.40;;;10.20;99.90;;;;;;5134759;28;20414;-79
2022/11/18 13:27:58;;;;;;;0.33;0.30;;;10.20;99.90;;;;;;5134424;27;20427;-79
2022/11/18 13:30:25;;;;;;;0.40;0.30;;;10.10;99.90;;;;;;5134439;27;20418;-79
2022/11/18 13:32:57;;;;;;;0.30;0.30;;;10.10;99.90;;;;;;5134263;27;20447;-79
2022/11/18 13:35:26;;;;;;;0.50;0.40;;;10.10;99.90;;;;;;5134028;27;20463;-79
2022/11/18 13:37:54;;;;;;;0.30;0.30;;;10.00;99.90;;;;;;5134322;27;20442;-79
2022/11/18 13:40:24;;;;;;;0.40;0.30;;;9.90;99.90;;;;;;5134487;27;20442;-79